Time;durP1;ratioP1;P1;durP2;ratioP2;P2;SDS_P1;SDS_P2;PMS_P1;PMS_P2;Temp;Humidity;BMP_temperature;BMP_pressure;BME280_temperature;BME280_humidity;BME280_pressure;Samples;Min_cycle;Max_cycle;Signal;HPM_P1;HPM_P2
2022/02/20 00:01:54;;;;;;;5.57;2.15;;;3.90;99.90;;;;;;12519121;28;20122;-83
2022/02/20 00:07:57;;;;;;;4.80;2.20;;;4.00;99.90;;;;;;12520181;28;20145;-86
2022/02/20 00:13:59;;;;;;;4.57;2.40;;;3.90;99.90;;;;;;12516095;28;20053;-87
2022/02/20 00:20:03;;;;;;;5.75;3.03;;;4.00;99.90;;;;;;12529476;28;20068;-87
2022/02/20 00:26:04;;;;;;;5.38;3.78;;;4.00;99.90;;;;;;12555425;28;20041;-87
2022/02/20 00:32:07;;;;;;;8.88;4.57;;;4.00;99.90;;;;;;12523983;28;21177;-87
2022/02/20 00:38:11;;;;;;;9.50;5.95;;;4.10;99.90;;;;;;12542999;28;20045;-84
2022/02/20 00:44:12;;;;;;;10.17;5.20;;;4.30;99.90;;;;;;12531221;28;20040;-86
2022/02/20 00:50:15;;;;;;;8.32;5.35;;;4.40;99.90;;;;;;12510900;28;20051;-87
2022/02/20 00:56:16;;;;;;;7.10;4.95;;;4.50;99.90;;;;;;12508169;28;20143;-84
2022/02/20 01:02:18;;;;;;;7.40;4.38;;;4.60;99.90;;;;;;12511864;28;20117;-83
2022/02/20 01:08:20;;;;;;;6.25;4.10;;;4.80;99.90;;;;;;12513912;28;20180;-88
2022/02/20 01:14:22;;;;;;;7.43;3.90;;;5.00;99.90;;;;;;12519619;28;20612;-86
2022/02/20 01:20:24;;;;;;;8.23;3.10;;;5.10;99.90;;;;;;12529089;28;20056;-85
2022/02/20 01:26:26;;;;;;;7.53;2.90;;;5.10;99.90;;;;;;12536473;28;20051;-86
2022/02/20 01:32:28;;;;;;;4.82;2.83;;;5.20;99.90;;;;;;12538029;28;20045;-86
2022/02/20 01:38:30;;;;;;;3.72;2.60;;;5.20;99.90;;;;;;12538623;28;20056;-87
2022/02/20 01:44:34;;;;;;;6.57;3.10;;;5.20;99.90;;;;;;12546969;28;20045;-84
2022/02/20 01:50:36;;;;;;;5.63;2.97;;;5.20;99.90;;;;;;12540370;28;20568;-87
2022/02/20 01:56:38;;;;;;;9.18;2.75;;;5.30;99.90;;;;;;12534517;28;20121;-86
2022/02/20 02:02:40;;;;;;;9.10;2.72;;;5.20;99.90;;;;;;12528620;28;20057;-82
2022/02/20 02:08:42;;;;;;;7.47;2.50;;;5.20;99.90;;;;;;12531235;28;20057;-86
2022/02/20 02:14:56;;;;;;;14.80;3.70;;;5.10;99.90;;;;;;12535204;28;20068;-87
2022/02/20 02:20:59;;;;;;;10.82;2.50;;;5.10;99.90;;;;;;12510204;28;20107;-84
2022/02/20 02:27:03;;;;;;;11.52;2.88;;;5.00;99.90;;;;;;12513956;28;20500;-84
2022/02/20 02:33:05;;;;;;;7.68;2.58;;;5.00;99.90;;;;;;12511319;28;20072;-87
2022/02/20 02:39:07;;;;;;;10.02;2.78;;;4.90;99.90;;;;;;12540919;28;20049;-85
2022/02/20 02:45:09;;;;;;;11.60;2.70;;;4.90;99.90;;;;;;12538874;28;20029;-85
2022/02/20 02:51:11;;;;;;;9.05;2.50;;;4.90;99.90;;;;;;12560936;28;20137;-86
2022/02/20 02:57:13;;;;;;;7.85;2.63;;;5.00;99.90;;;;;;12548472;28;20041;-83
2022/02/20 03:03:15;;;;;;;8.77;2.30;;;4.90;99.90;;;;;;12568605;28;20052;-85
2022/02/20 03:09:19;;;;;;;9.65;2.42;;;4.90;99.90;;;;;;12526663;28;21927;-83
2022/02/20 03:15:21;;;;;;;6.90;2.28;;;5.00;99.90;;;;;;12528587;28;20049;-82
2022/02/20 03:21:24;;;;;;;14.05;2.83;;;4.90;99.90;;;;;;12527799;28;20091;-84
2022/02/20 03:27:25;;;;;;;12.25;3.15;;;5.00;99.90;;;;;;12537708;28;20048;-84
2022/02/20 03:33:28;;;;;;;9.43;2.88;;;5.00;99.90;;;;;;12536699;28;20780;-81
2022/02/20 03:39:30;;;;;;;9.55;2.80;;;4.90;99.90;;;;;;12536145;28;20087;-82
2022/02/20 03:45:32;;;;;;;9.02;2.80;;;4.90;99.90;;;;;;12516615;28;20070;-83
2022/02/20 03:51:34;;;;;;;8.70;2.83;;;4.80;99.90;;;;;;12551318;28;20055;-83
2022/02/20 03:57:45;;;;;;;6.55;2.92;;;4.80;99.90;;;;;;12531018;28;20505;-83
2022/02/20 04:03:47;;;;;;;8.00;3.15;;;4.70;99.90;;;;;;12501987;28;20049;-83
2022/02/20 04:09:49;;;;;;;7.90;3.72;;;4.70;99.90;;;;;;12518722;28;20057;-82
2022/02/20 04:15:51;;;;;;;9.10;3.83;;;4.70;99.90;;;;;;12519569;28;20071;-83
2022/02/20 04:21:53;;;;;;;9.65;3.42;;;4.80;99.90;;;;;;12511623;28;20060;-84
2022/02/20 04:27:57;;;;;;;12.35;4.63;;;4.60;99.90;;;;;;12531001;28;20049;-84
2022/02/20 04:33:59;;;;;;;9.33;3.60;;;4.70;99.90;;;;;;12509310;28;20076;-84
2022/02/20 04:40:05;;;;;;;9.13;4.50;;;4.60;99.90;;;;;;12519148;28;20576;-86
2022/02/20 04:46:08;;;;;;;9.07;3.70;;;4.60;99.90;;;;;;12541135;28;20131;-84
2022/02/20 04:52:10;;;;;;;12.63;5.00;;;4.60;99.90;;;;;;12525162;28;20532;-85
2022/02/20 04:58:12;;;;;;;10.93;4.03;;;4.60;99.90;;;;;;12516078;28;20178;-84
2022/02/20 05:04:14;;;;;;;9.98;4.47;;;4.60;99.90;;;;;;12522027;28;20104;-84
2022/02/20 05:10:16;;;;;;;8.45;3.80;;;4.50;99.90;;;;;;12533717;28;20064;-83
2022/02/20 05:16:18;;;;;;;9.30;4.30;;;4.50;99.90;;;;;;12535544;28;20187;-85
2022/02/20 05:22:20;;;;;;;11.85;4.55;;;4.50;99.90;;;;;;12534121;28;20080;-84
2022/02/20 05:28:22;;;;;;;9.90;4.22;;;4.40;99.90;;;;;;12540599;28;20064;-84
2022/02/20 05:34:24;;;;;;;8.20;4.10;;;4.50;99.90;;;;;;12530410;28;20053;-84
2022/02/20 05:40:26;;;;;;;8.32;4.60;;;4.40;99.90;;;;;;12531284;28;20048;-85
2022/02/20 05:46:28;;;;;;;10.18;4.07;;;4.30;99.90;;;;;;12542087;28;20080;-84
2022/02/20 05:52:30;;;;;;;7.72;4.43;;;4.30;99.90;;;;;;12522649;28;20088;-86
2022/02/20 05:58:33;;;;;;;6.95;4.00;;;4.10;99.90;;;;;;12528025;28;20053;-84
2022/02/20 06:04:35;;;;;;;10.00;4.15;;;4.10;99.90;;;;;;12531044;28;20093;-84
2022/02/20 06:10:37;;;;;;;5.95;3.55;;;4.00;99.90;;;;;;12543663;28;20072;-84
2022/02/20 06:16:39;;;;;;;6.63;3.40;;;3.90;99.90;;;;;;12522592;28;20116;-86
2022/02/20 06:22:41;;;;;;;7.18;3.65;;;3.80;99.90;;;;;;12531797;28;20057;-84
2022/02/20 06:28:43;;;;;;;6.18;3.13;;;3.80;99.90;;;;;;12528940;28;20051;-85
2022/02/20 06:34:45;;;;;;;5.35;2.90;;;3.80;99.90;;;;;;12535501;28;20052;-86
2022/02/20 06:40:47;;;;;;;4.00;2.60;;;3.80;99.90;;;;;;12532180;28;20778;-82
2022/02/20 06:46:50;;;;;;;3.88;2.40;;;3.80;99.90;;;;;;12544703;28;20081;-86
2022/02/20 06:52:51;;;;;;;3.88;2.50;;;3.80;99.90;;;;;;12541281;28;20048;-84
2022/02/20 06:58:53;;;;;;;6.22;2.95;;;3.80;99.90;;;;;;12547772;28;20055;-83
2022/02/20 07:04:55;;;;;;;6.70;2.92;;;3.80;99.90;;;;;;12531014;28;20517;-83
2022/02/20 07:10:59;;;;;;;6.80;3.72;;;3.90;99.90;;;;;;12541374;28;20557;-83
2022/02/20 07:17:01;;;;;;;8.38;3.97;;;3.80;99.90;;;;;;12520582;28;20624;-83
2022/02/20 07:23:03;;;;;;;10.60;4.72;;;3.90;99.90;;;;;;12523501;28;20061;-84
2022/02/20 07:29:05;;;;;;;8.13;5.30;;;3.90;99.90;;;;;;12537692;28;20120;-84
2022/02/20 07:35:07;;;;;;;10.85;6.32;;;3.90;99.90;;;;;;12527101;28;20045;-85
2022/02/20 07:41:09;;;;;;;11.30;6.47;;;3.80;99.90;;;;;;12522912;28;20960;-83
2022/02/20 07:47:11;;;;;;;14.55;7.20;;;3.80;99.90;;;;;;12514954;28;20604;-84
2022/02/20 07:53:14;;;;;;;13.10;8.02;;;3.80;99.90;;;;;;12511926;28;20052;-84
2022/02/20 07:59:16;;;;;;;15.95;7.88;;;3.80;99.90;;;;;;12523831;28;20501;-86
2022/02/20 08:05:18;;;;;;;13.68;8.13;;;3.80;99.90;;;;;;12543972;28;20056;-85
2022/02/20 08:11:21;;;;;;;19.38;9.00;;;3.80;99.90;;;;;;12537914;28;20049;-83
2022/02/20 08:17:24;;;;;;;14.55;7.47;;;3.80;99.90;;;;;;12530935;28;20051;-87
2022/02/20 08:23:26;;;;;;;15.85;8.18;;;3.90;99.90;;;;;;12554225;28;20755;-86
2022/02/20 08:29:28;;;;;;;15.02;7.53;;;3.90;99.90;;;;;;12508949;28;20053;-86
2022/02/20 08:35:31;;;;;;;15.48;8.10;;;4.10;99.90;;;;;;12540527;28;20075;-86
2022/02/20 08:41:35;;;;;;;24.02;7.60;;;4.20;99.90;;;;;;12525047;28;20342;-84
2022/02/20 08:47:37;;;;;;;15.90;6.23;;;4.50;99.90;;;;;;12536249;28;20135;-85
2022/02/20 08:53:39;;;;;;;15.77;6.53;;;4.60;99.90;;;;;;12512981;28;20076;-86
2022/02/20 08:59:41;;;;;;;23.80;6.93;;;4.70;99.90;;;;;;12552492;28;20541;-87
2022/02/20 09:05:43;;;;;;;13.50;6.32;;;4.90;99.90;;;;;;12514913;28;20139;-86
2022/02/20 09:11:48;;;;;;;23.05;6.60;;;4.90;99.90;;;;;;12519835;28;20056;-84
2022/02/20 09:17:50;;;;;;;17.92;5.60;;;5.20;99.90;;;;;;12533764;28;20056;-84
2022/02/20 09:23:52;;;;;;;13.05;5.07;;;5.30;99.90;;;;;;12512745;28;20045;-85
2022/02/20 09:29:54;;;;;;;14.40;5.28;;;5.50;99.90;;;;;;12523529;28;20068;-84
2022/02/20 09:35:56;;;;;;;16.92;4.75;;;5.60;99.90;;;;;;12523351;28;20052;-84
2022/02/20 09:41:59;;;;;;;14.55;4.57;;;5.60;99.90;;;;;;12514814;28;20049;-84
2022/02/20 09:48:02;;;;;;;14.75;4.25;;;5.80;99.90;;;;;;12510011;28;20114;-85
2022/02/20 09:54:06;;;;;;;8.07;3.65;;;6.00;99.90;;;;;;12529228;28;20082;-85
2022/02/20 10:00:09;;;;;;;7.40;3.40;;;6.10;99.90;;;;;;12524363;28;20508;-83
2022/02/20 10:06:24;;;;;;;8.60;3.30;;;6.30;99.90;;;;;;12509402;28;20060;-84
2022/02/20 10:12:27;;;;;;;;;;;6.40;99.90;;;;;;12517866;28;20060;-85
2022/02/20 10:18:29;;;;;;;7.97;3.75;;;6.50;99.90;;;;;;12531042;28;20347;-85
2022/02/20 10:24:31;;;;;;;5.82;3.80;;;6.70;99.90;;;;;;12516038;28;20127;-88
2022/02/20 10:30:34;;;;;;;7.90;4.30;;;6.80;99.90;;;;;;12518743;28;20060;-86
2022/02/20 10:36:57;;;;;;;8.18;3.75;;;6.90;99.90;;;;;;12497443;28;20053;-85
2022/02/20 10:43:01;;;;;;;9.27;4.50;;;7.10;99.90;;;;;;12529119;28;20088;-88
2022/02/20 10:49:04;;;;;;;10.55;4.60;;;7.20;99.90;;;;;;12548456;28;20052;-87
2022/02/20 10:55:12;;;;;;;10.77;4.60;;;7.40;99.90;;;;;;12520486;28;20072;-85
2022/02/20 11:01:24;;;;;;;7.53;4.38;;;7.50;99.90;;;;;;12532297;28;20099;-89
2022/02/20 11:07:27;;;;;;;9.68;4.93;;;7.60;99.90;;;;;;12515313;28;20521;-87
2022/02/20 11:13:29;;;;;;;10.25;5.90;;;7.70;99.90;;;;;;12534539;28;20049;-85
2022/02/20 11:19:35;;;;;;;10.05;5.82;;;7.80;99.90;;;;;;12525138;28;20045;-87
2022/02/20 11:25:41;;;;;;;11.05;6.63;;;7.90;99.90;;;;;;12519873;28;20049;-87
2022/02/20 11:31:44;;;;;;;13.07;6.97;;;7.90;99.90;;;;;;12509914;28;20041;-85
2022/02/20 11:37:56;;;;;;;12.68;6.53;;;8.00;99.90;;;;;;12526183;28;20053;-84
2022/02/20 11:44:13;;;;;;;10.77;6.35;;;8.00;99.90;;;;;;12520317;28;20087;-83
2022/02/20 11:50:15;;;;;;;14.32;6.65;;;8.10;99.90;;;;;;12529585;28;20132;-86
2022/02/20 11:56:17;;;;;;;13.40;6.55;;;8.10;99.90;;;;;;12541618;28;20048;-90
2022/02/20 12:02:19;;;;;;;12.07;7.38;;;8.10;99.90;;;;;;12534262;28;20052;-87
2022/02/20 12:08:34;;;;;;;16.70;6.85;;;8.20;99.90;;;;;;12515915;28;20059;-86
2022/02/20 12:14:37;;;;;;;17.08;7.35;;;8.20;99.90;;;;;;12518812;28;20045;-85
2022/02/20 12:20:54;;;;;;;16.60;7.28;;;8.20;99.90;;;;;;12509420;28;20167;-85
2022/02/20 12:26:59;;;;;;;14.07;6.70;;;8.20;99.90;;;;;;12516966;28;20087;-87
2022/02/20 12:33:03;;;;;;;12.48;5.97;;;8.30;99.90;;;;;;12515270;28;20128;-83
2022/02/20 12:39:05;;;;;;;14.93;6.50;;;8.30;99.90;;;;;;12534462;28;20049;-83
2022/02/20 12:45:14;;;;;;;13.45;5.30;;;8.30;99.90;;;;;;12527872;28;20825;-82
2022/02/20 12:51:16;;;;;;;12.20;5.70;;;8.20;99.90;;;;;;12533177;28;20052;-85
2022/02/20 12:57:19;;;;;;;14.40;6.07;;;8.20;99.90;;;;;;12513430;28;20110;-85
2022/02/20 13:03:22;;;;;;;18.38;7.15;;;8.30;99.90;;;;;;12508511;28;20452;-85
2022/02/20 13:09:24;;;;;;;16.23;7.85;;;8.30;99.90;;;;;;12535251;28;20052;-86
2022/02/20 13:15:28;;;;;;;16.15;7.30;;;8.30;99.90;;;;;;12526131;28;20548;-82
2022/02/20 13:21:35;;;;;;;18.42;7.25;;;8.40;99.90;;;;;;12513896;28;20052;-84
2022/02/20 13:27:47;;;;;;;16.60;6.38;;;8.50;99.90;;;;;;12515604;28;20095;-86
2022/02/20 13:33:50;;;;;;;18.33;7.32;;;8.50;99.90;;;;;;12533591;28;20045;-83
2022/02/20 13:39:52;;;;;;;17.83;5.57;;;8.50;99.90;;;;;;12532999;28;20056;-84
2022/02/20 13:46:00;;;;;;;12.98;5.22;;;8.60;99.90;;;;;;12533394;28;20158;-86
2022/02/20 13:52:04;;;;;;;18.88;6.00;;;8.60;99.90;;;;;;12539538;28;20075;-85
2022/02/20 13:58:15;;;;;;;12.50;4.63;;;8.70;99.90;;;;;;12530032;28;20505;-83
2022/02/20 14:04:47;;;;;;;8.55;4.38;;;8.70;99.90;;;;;;12562537;28;20044;-83
2022/02/20 14:10:57;;;;;;;16.05;5.20;;;8.70;99.90;;;;;;12533304;28;20500;-85
2022/02/20 14:16:59;;;;;;;12.65;4.93;;;8.80;99.90;;;;;;12529182;28;20441;-83
2022/02/20 14:23:17;;;;;;;12.13;4.68;;;8.70;99.90;;;;;;12531134;28;20065;-83
2022/02/20 14:29:24;;;;;;;10.70;4.80;;;8.80;99.90;;;;;;12528277;28;20134;-83
2022/02/20 14:35:26;;;;;;;10.18;3.72;;;8.80;99.90;;;;;;12519034;28;20064;-83
2022/02/20 14:41:31;;;;;;;8.70;3.85;;;8.80;99.90;;;;;;12518271;28;20493;-85
2022/02/20 14:47:33;;;;;;;11.15;3.80;;;8.80;99.90;;;;;;12524236;28;20144;-84
2022/02/20 14:53:36;;;;;;;14.50;4.20;;;8.70;99.90;;;;;;12554998;28;20051;-84
2022/02/20 14:59:39;;;;;;;11.43;4.07;;;8.80;99.90;;;;;;12528198;28;20486;-82
2022/02/20 15:05:41;;;;;;;8.23;3.60;;;8.70;99.90;;;;;;12523821;28;20750;-82
2022/02/20 15:11:45;;;;;;;7.07;3.05;;;8.80;99.90;;;;;;12528393;28;20468;-85
2022/02/20 15:17:48;;;;;;;8.47;3.20;;;8.70;99.90;;;;;;12531126;28;20941;-83
2022/02/20 15:23:50;;;;;;;12.23;3.78;;;8.70;99.90;;;;;;12539825;28;20049;-82
2022/02/20 15:29:52;;;;;;;8.60;3.28;;;8.70;99.90;;;;;;12537672;28;20064;-83
2022/02/20 15:35:54;;;;;;;10.20;2.40;;;8.60;99.90;;;;;;12501992;28;20136;-87
2022/02/20 15:41:55;;;;;;;7.95;2.45;;;8.70;99.90;;;;;;12526734;28;20171;-84
2022/02/20 15:47:59;;;;;;;8.38;2.30;;;8.60;99.90;;;;;;12523603;28;20049;-83
2022/02/20 15:54:01;;;;;;;10.02;2.80;;;8.60;99.90;;;;;;12531170;28;20358;-84
2022/02/20 16:00:05;;;;;;;7.20;2.30;;;8.60;99.90;;;;;;12516023;28;20056;-86
2022/02/20 16:06:08;;;;;;;6.72;2.22;;;8.60;99.90;;;;;;12509273;28;20068;-84
2022/02/20 16:12:10;;;;;;;7.93;2.50;;;8.50;99.90;;;;;;12525500;28;20059;-86
2022/02/20 16:18:14;;;;;;;6.57;1.95;;;8.50;99.90;;;;;;12521551;28;20417;-89
2022/02/20 16:24:16;;;;;;;5.32;1.95;;;8.60;99.90;;;;;;12501319;28;20041;-84
2022/02/20 16:30:33;;;;;;;6.93;2.50;;;8.50;99.90;;;;;;12507397;28;20093;-84
2022/02/20 16:36:35;;;;;;;6.90;2.20;;;8.50;99.90;;;;;;12523998;28;20147;-83
2022/02/20 16:42:40;;;;;;;7.07;1.90;;;8.50;99.90;;;;;;12523420;28;20049;-89
2022/02/20 16:48:42;;;;;;;7.85;2.70;;;8.50;99.90;;;;;;12518660;28;20052;-85
2022/02/20 16:54:47;;;;;;;7.90;2.13;;;8.50;99.90;;;;;;12510933;28;20064;-86
2022/02/20 17:00:51;;;;;;;6.85;2.30;;;8.50;99.90;;;;;;12529524;28;20083;-86
2022/02/20 17:06:54;;;;;;;9.32;2.47;;;8.50;99.90;;;;;;12519717;28;20426;-84
2022/02/20 17:13:00;;;;;;;10.77;2.58;;;8.50;99.90;;;;;;12516061;28;20044;-86
2022/02/20 17:19:02;;;;;;;7.35;2.10;;;8.50;99.90;;;;;;12514184;28;20057;-86
2022/02/20 17:25:06;;;;;;;7.25;2.67;;;8.60;99.90;;;;;;12523798;28;20132;-88
2022/02/20 17:31:15;;;;;;;9.00;2.63;;;8.50;99.90;;;;;;12518744;28;20052;-85
2022/02/20 17:37:17;;;;;;;8.70;2.65;;;8.50;99.90;;;;;;12564357;28;20632;-86
2022/02/20 17:43:19;;;;;;;8.95;2.88;;;8.50;99.90;;;;;;12527127;28;20045;-85
2022/02/20 17:49:23;;;;;;;9.60;2.70;;;8.60;99.90;;;;;;12513876;28;20045;-88
2022/02/20 17:55:26;;;;;;;;;;;8.60;99.90;;;;;;12508497;28;20048;-83
2022/02/20 18:01:30;;;;;;;11.70;2.90;;;8.60;99.90;;;;;;12512571;28;19946;-84
2022/02/20 18:07:33;;;;;;;8.75;3.05;;;8.60;99.90;;;;;;12512395;28;20057;-83
2022/02/20 18:13:41;;;;;;;9.45;4.45;;;8.60;99.90;;;;;;12513336;28;20052;-83
2022/02/20 18:19:44;;;;;;;7.88;3.03;;;8.60;99.90;;;;;;12504558;28;20521;-87
2022/02/20 18:25:46;;;;;;;7.03;2.60;;;8.70;99.90;;;;;;12537029;28;20068;-86
2022/02/20 18:31:48;;;;;;;9.68;2.90;;;8.60;99.90;;;;;;12517201;28;20049;-85
2022/02/20 18:37:50;;;;;;;6.20;2.45;;;8.70;99.90;;;;;;12541709;28;20049;-85
2022/02/20 18:43:54;;;;;;;9.65;2.28;;;8.70;99.90;;;;;;12511183;28;20056;-86
2022/02/20 18:49:56;;;;;;;8.77;2.67;;;8.70;99.90;;;;;;12518778;28;20053;-85
2022/02/20 18:55:58;;;;;;;6.53;2.20;;;8.80;99.90;;;;;;12521345;28;20041;-85
2022/02/20 19:02:05;;;;;;;7.93;2.63;;;8.80;99.90;;;;;;12525709;28;20500;-84
2022/02/20 19:08:07;;;;;;;9.40;2.63;;;8.80;99.90;;;;;;12520643;28;20137;-85
2022/02/20 19:14:09;;;;;;;5.55;2.38;;;8.70;99.90;;;;;;12498275;28;20386;-85
2022/02/20 19:20:13;;;;;;;8.73;2.63;;;8.80;99.90;;;;;;12524186;28;20041;-87
2022/02/20 19:26:15;;;;;;;7.00;2.45;;;8.80;99.90;;;;;;12533125;28;21570;-84
2022/02/20 19:32:17;;;;;;;6.43;2.38;;;8.80;99.90;;;;;;12528013;28;20555;-85
2022/02/20 19:38:20;;;;;;;6.53;2.33;;;8.80;99.90;;;;;;12516054;28;20050;-84
2022/02/20 19:44:22;;;;;;;5.75;2.33;;;8.80;99.90;;;;;;12510582;28;20132;-88
2022/02/20 19:50:27;;;;;;;11.77;2.42;;;8.80;99.90;;;;;;12522690;28;20592;-87
2022/02/20 19:56:33;;;;;;;9.00;2.58;;;8.70;99.90;;;;;;12509394;28;20044;-84
2022/02/20 20:02:35;;;;;;;5.78;2.53;;;8.70;99.90;;;;;;12519166;28;20052;-85
2022/02/20 20:08:38;;;;;;;10.73;2.40;;;8.80;99.90;;;;;;12520608;28;20103;-84
2022/02/20 20:14:43;;;;;;;7.43;2.30;;;8.90;99.90;;;;;;12521389;28;20044;-86
2022/02/20 20:20:46;;;;;;;7.55;2.58;;;8.80;99.90;;;;;;12510315;28;20040;-85
2022/02/20 20:26:48;;;;;;;16.23;3.08;;;8.80;99.90;;;;;;12514575;28;20096;-85
2022/02/20 20:32:53;;;;;;;8.77;2.47;;;8.80;99.90;;;;;;12513279;28;20083;-84
2022/02/20 20:38:55;;;;;;;11.13;3.00;;;8.80;99.90;;;;;;12515845;28;20052;-85
2022/02/20 20:44:57;;;;;;;13.55;3.47;;;8.80;99.90;;;;;;12517359;28;20051;-87
2022/02/20 20:50:59;;;;;;;11.95;3.13;;;8.80;99.90;;;;;;12540478;28;20060;-85
2022/02/20 20:57:01;;;;;;;10.52;3.55;;;8.80;99.90;;;;;;12511357;28;20053;-86
2022/02/20 21:03:03;;;;;;;13.10;3.13;;;8.80;99.90;;;;;;12535712;28;20489;-84
2022/02/20 21:09:08;;;;;;;9.85;2.83;;;8.80;99.90;;;;;;12520835;28;20064;-87
2022/02/20 21:15:17;;;;;;;11.27;2.92;;;8.80;99.90;;;;;;12535512;28;20413;-86
2022/02/20 21:21:20;;;;;;;12.88;3.50;;;8.90;99.90;;;;;;12512020;28;20515;-85
2022/02/20 21:27:22;;;;;;;9.43;2.75;;;9.00;99.90;;;;;;12535234;28;20426;-81
2022/02/20 21:33:26;;;;;;;14.27;3.95;;;9.00;99.90;;;;;;12518101;28;20047;-83
2022/02/20 21:39:29;;;;;;;10.60;2.50;;;9.00;99.90;;;;;;12526446;28;20056;-85
2022/02/20 21:45:32;;;;;;;12.65;2.80;;;9.10;99.90;;;;;;12540048;28;20041;-84
2022/02/20 21:51:36;;;;;;;13.82;2.85;;;9.20;99.90;;;;;;12530495;28;20635;-82
2022/02/20 21:57:38;;;;;;;7.85;2.17;;;9.40;99.90;;;;;;12535638;28;20064;-84
2022/02/20 22:03:40;;;;;;;11.57;3.10;;;9.30;99.90;;;;;;12546935;28;20025;-83
2022/02/20 22:09:42;;;;;;;9.98;2.42;;;9.30;99.90;;;;;;12551433;28;20060;-85
2022/02/20 22:15:44;;;;;;;8.75;2.80;;;9.30;99.90;;;;;;12533182;28;20053;-82
2022/02/20 22:21:46;;;;;;;13.25;2.47;;;9.20;99.90;;;;;;12540806;28;20044;-83
2022/02/20 22:27:49;;;;;;;7.95;1.98;;;9.40;99.90;;;;;;12522678;28;20055;-83
2022/02/20 22:33:51;;;;;;;9.52;2.00;;;9.40;99.90;;;;;;12494930;28;20050;-84
2022/02/20 22:39:53;;;;;;;9.07;2.25;;;9.50;99.90;;;;;;12520754;28;20588;-84
2022/02/20 22:45:59;;;;;;;6.75;1.70;;;9.30;99.90;;;;;;12527610;28;20056;-84
2022/02/20 22:52:02;;;;;;;7.75;1.77;;;9.20;99.90;;;;;;12521090;28;20040;-88
2022/02/20 22:58:04;;;;;;;10.63;1.70;;;9.10;99.90;;;;;;12530609;28;20106;-84
2022/02/20 23:04:06;;;;;;;9.77;2.08;;;9.10;99.90;;;;;;12517042;28;20588;-84
2022/02/20 23:10:08;;;;;;;7.20;1.67;;;9.10;99.90;;;;;;12536377;28;20064;-85
2022/02/20 23:16:10;;;;;;;6.43;1.48;;;9.00;99.90;;;;;;12514527;28;20274;-84
2022/02/20 23:22:13;;;;;;;9.63;1.60;;;9.00;99.90;;;;;;12541209;28;20049;-85
2022/02/20 23:28:16;;;;;;;11.48;2.40;;;9.10;99.90;;;;;;12530805;28;20501;-86
2022/02/20 23:34:18;;;;;;;6.22;1.40;;;9.10;99.90;;;;;;12542415;28;20048;-86
2022/02/20 23:40:20;;;;;;;11.15;1.40;;;9.20;99.90;;;;;;12519206;28;20060;-88
2022/02/20 23:46:22;;;;;;;6.32;0.70;;;9.20;99.90;;;;;;12534223;28;20458;-86
2022/02/20 23:52:25;;;;;;;1.20;0.47;;;8.30;99.90;;;;;;12524318;28;20096;-86
2022/02/20 23:58:29;;;;;;;1.70;0.30;;;6.60;99.90;;;;;;12511262;28;20060;-85
